This is the latest recevied weather packets stored in our database for station/object IT9RID. If no packets are shown the sender has not sent any weather packets the latest 10 day(s).
| Time | Temp. | Humidity | Pressure | Rain* | Wind** | Luminosity | Snow |
|---|---|---|---|---|---|---|---|
| 1787675193 | 33.89° C | 48% | 1014.2 hPa | 0 mm | - | - | - |
| 1787674593 | 33.89° C | 48% | 1014.3 hPa | 0 mm | - | - | - |
| 1787673993 | 34.44° C | 47% | 1014.3 hPa | 0 mm | - | - | - |
| 1787673393 | 34.44° C | 46% | 1014.2 hPa | 0 mm | - | - | - |
| 1787672792 | 34.44° C | 45% | 1014.3 hPa | 0 mm | - | - | - |
| 1787671592 | 35° C | 42% | 1014.1 hPa | 0 mm | - | - | - |
| 1787670992 | 35° C | 40% | 1014.2 hPa | 0 mm | - | - | - |
| 1787670393 | 35.56° C | 40% | 1014.1 hPa | 0 mm | - | - | - |
| 1787669792 | 36.11° C | 40% | 1014.1 hPa | 0 mm | - | - | - |
| 1787669191 | 36.11° C | 39% | 1013.9 hPa | 0 mm | - | - | - |
| 1787668591 | 36.11° C | 40% | 1013.7 hPa | 0 mm | - | - | - |
| 1787667991 | 35.56° C | 40% | 1013.4 hPa | 0 mm | - | - | - |
| 1787667391 | 36.11° C | 37% | 1013.3 hPa | 0 mm | - | - | - |
| 1787666791 | 36.67° C | 39% | 1013.1 hPa | 0 mm | - | - | - |
| 1787666191 | 36.11° C | 47% | 1012.8 hPa | 0 mm | - | - | - |
| 1787665593 | 36.11° C | 47% | 1012.5 hPa | 0 mm | - | - | - |
| 1787664990 | 35.56° C | 47% | 1012.4 hPa | 0 mm | - | - | - |
| 1787664390 | 35.56° C | 50% | 1012.3 hPa | 0 mm | - | - | - |
| 1787663790 | 36.11° C | 49% | 1012.1 hPa | 0 mm | - | - | - |
| 1787663190 | 37.22° C | 45% | 1011.9 hPa | 0 mm | - | - | - |
| 1787662590 | 37.22° C | 47% | 1011.8 hPa | 0 mm | - | - | - |
| 1787661991 | 36.67° C | 49% | 1012 hPa | 0 mm | - | - | - |
| 1787661390 | 37.22° C | 49% | 1011.9 hPa | 0 mm | - | - | - |
| 1787660189 | 37.78° C | 45% | 1012 hPa | 0 mm | - | - | - |
| 1787659589 | 37.22° C | 44% | 1012.1 hPa | 0 mm | - | - | - |
* Rain latest hour (hover to see other rain measurements)
** Current wind speed in m/s (hover to see current wind gust speed)